Time;durP1;ratioP1;P1;durP2;ratioP2;P2;SDS_P1;SDS_P2;PMS_P1;PMS_P2;Temp;Humidity;BMP_temperature;BMP_pressure;BME280_temperature;BME280_humidity;BME280_pressure;Samples;Min_cycle;Max_cycle;Signal;HPM_P1;HPM_P2
2022/05/12 00:01:06;;;;;;;25.77;23.47;;;14.70;99.90;;;;;;5036432;28;20484;-66
2022/05/12 00:03:35;;;;;;;23.97;22.10;;;14.70;99.90;;;;;;5030017;28;20475;-66
2022/05/12 00:06:02;;;;;;;24.43;22.23;;;14.70;99.90;;;;;;5032211;28;20491;-66
2022/05/12 00:08:29;;;;;;;24.30;22.37;;;14.70;99.90;;;;;;5026058;28;20903;-66
2022/05/12 00:10:57;;;;;;;24.50;22.80;;;14.80;99.90;;;;;;5028708;28;20495;-67
2022/05/12 00:13:24;;;;;;;23.63;22.07;;;14.80;99.90;;;;;;5035540;28;21131;-65
2022/05/12 00:15:54;;;;;;;23.03;21.20;;;14.80;99.90;;;;;;5027588;28;20479;-66
2022/05/12 00:18:22;;;;;;;22.90;21.30;;;14.80;99.90;;;;;;5029443;28;20491;-66
2022/05/12 00:20:49;;;;;;;22.37;20.57;;;14.80;99.90;;;;;;5027589;28;20478;-68
2022/05/12 00:23:19;;;;;;;23.40;21.47;;;14.80;99.90;;;;;;5031470;28;20474;-67
2022/05/12 00:25:48;;;;;;;22.80;21.00;;;14.80;99.90;;;;;;5029734;28;20469;-66
2022/05/12 00:28:16;;;;;;;22.90;21.27;;;14.80;99.90;;;;;;5030502;28;20495;-66
2022/05/12 00:30:43;;;;;;;23.23;21.63;;;14.70;99.90;;;;;;5032837;28;20466;-66
2022/05/12 00:33:13;;;;;;;26.67;24.33;;;14.50;99.90;;;;;;5031374;28;20633;-66
2022/05/12 00:35:40;;;;;;;24.43;22.47;;;14.50;99.90;;;;;;5024925;28;20495;-66
2022/05/12 00:38:07;;;;;;;26.23;23.80;;;14.40;99.90;;;;;;5029335;28;20460;-66
2022/05/12 00:40:34;;;;;;;25.40;23.70;;;14.40;99.90;;;;;;5027479;28;20464;-66
2022/05/12 00:43:04;;;;;;;26.67;24.23;;;14.30;99.90;;;;;;5029472;28;20475;-66
2022/05/12 00:45:35;;;;;;;27.47;25.10;;;14.30;99.90;;;;;;5028915;28;20467;-66
2022/05/12 00:48:04;;;;;;;25.00;23.40;;;14.20;99.90;;;;;;5027813;28;20565;-67
2022/05/12 00:50:38;;;;;;;26.07;23.60;;;14.20;99.90;;;;;;5026928;28;21015;-68
2022/05/12 00:53:07;;;;;;;25.73;23.60;;;14.20;99.90;;;;;;5024875;28;20515;-67
2022/05/12 00:55:37;;;;;;;26.57;24.40;;;14.20;99.90;;;;;;5028701;28;20463;-67
2022/05/12 00:58:08;;;;;;;26.47;24.67;;;14.10;99.90;;;;;;5034468;28;20464;-66
2022/05/12 01:00:36;;;;;;;26.10;24.00;;;14.10;99.90;;;;;;5028184;28;20529;-67
2022/05/12 01:03:07;;;;;;;29.53;26.63;;;14.00;99.90;;;;;;5029865;28;20496;-67
2022/05/12 01:05:36;;;;;;;26.33;24.13;;;13.90;99.90;;;;;;5024144;28;20715;-66
2022/05/12 01:08:03;;;;;;;26.50;24.60;;;13.80;99.90;;;;;;5029081;28;20495;-67
2022/05/12 01:10:30;;;;;;;27.47;25.30;;;13.70;99.90;;;;;;5030128;28;20456;-66
2022/05/12 01:12:58;;;;;;;27.60;24.87;;;13.70;99.90;;;;;;5030030;28;20846;-66
2022/05/12 01:15:26;;;;;;;27.77;25.00;;;13.50;99.90;;;;;;5030360;28;21265;-65
2022/05/12 01:18:02;;;;;;;26.33;24.20;;;13.40;99.90;;;;;;5026680;28;20483;-67
2022/05/12 01:20:29;;;;;;;26.77;24.87;;;13.40;99.90;;;;;;5033839;28;20464;-68
2022/05/12 01:23:00;;;;;;;26.17;24.37;;;13.30;99.90;;;;;;5033282;28;20461;-66
2022/05/12 01:25:31;;;;;;;26.73;24.47;;;13.20;99.90;;;;;;5032596;28;20468;-67
2022/05/12 01:27:58;;;;;;;27.73;25.73;;;13.20;99.90;;;;;;5031764;28;20524;-68
2022/05/12 01:30:27;;;;;;;28.40;25.93;;;13.00;99.90;;;;;;5033668;28;20492;-67
2022/05/12 01:32:54;;;;;;;28.97;26.20;;;13.00;99.90;;;;;;5033542;28;20471;-67
2022/05/12 01:35:24;;;;;;;29.20;26.40;;;12.90;99.90;;;;;;5028971;28;21010;-66
2022/05/12 01:37:51;;;;;;;28.97;26.70;;;12.80;99.90;;;;;;5030316;28;21132;-67
2022/05/12 01:40:21;;;;;;;31.50;28.50;;;12.70;99.90;;;;;;5031478;28;20689;-66
2022/05/12 01:42:50;;;;;;;30.50;27.83;;;12.60;99.90;;;;;;5030282;28;20742;-68
2022/05/12 01:45:18;;;;;;;30.60;28.30;;;12.60;99.90;;;;;;5032891;28;20831;-68
2022/05/12 01:47:46;;;;;;;30.50;28.10;;;12.50;99.90;;;;;;5032274;28;20686;-67
2022/05/12 01:50:14;;;;;;;31.90;29.07;;;12.50;99.90;;;;;;5034284;28;20469;-66
2022/05/12 01:52:43;;;;;;;33.80;30.90;;;12.40;99.90;;;;;;5036130;28;20463;-66
2022/05/12 01:55:11;;;;;;;32.37;29.80;;;12.30;99.90;;;;;;5032344;28;20571;-65
2022/05/12 01:57:38;;;;;;;33.50;30.90;;;12.20;99.90;;;;;;5032577;28;20464;-68
2022/05/12 02:00:08;;;;;;;35.07;31.87;;;12.10;99.90;;;;;;5034285;28;20483;-67
2022/05/12 02:02:37;;;;;;;32.83;30.47;;;12.00;99.90;;;;;;5035290;28;20474;-66
2022/05/12 02:05:03;;;;;;;32.50;30.17;;;11.90;99.90;;;;;;5030359;28;20497;-67
2022/05/12 02:07:30;;;;;;;33.73;31.03;;;11.90;99.90;;;;;;5028331;28;20989;-66
2022/05/12 02:09:57;;;;;;;32.90;30.40;;;11.80;99.90;;;;;;5029709;28;20476;-68
2022/05/12 02:12:24;;;;;;;34.20;31.70;;;11.80;99.90;;;;;;5029867;28;20472;-67
2022/05/12 02:14:51;;;;;;;35.43;32.20;;;11.70;99.90;;;;;;5028989;28;20468;-66
2022/05/12 02:17:20;;;;;;;35.77;32.87;;;11.60;99.90;;;;;;5033365;28;20467;-67
2022/05/12 02:19:48;;;;;;;35.67;32.60;;;11.60;99.90;;;;;;5030715;28;20527;-67
2022/05/12 02:22:17;;;;;;;35.27;32.50;;;11.50;99.90;;;;;;5030181;28;20764;-66
2022/05/12 02:24:44;;;;;;;36.40;33.60;;;11.40;99.90;;;;;;5028051;28;20492;-66
2022/05/12 02:27:11;;;;;;;36.40;33.80;;;11.30;99.90;;;;;;5030162;28;20579;-66
2022/05/12 02:29:38;;;;;;;37.60;34.53;;;11.40;99.90;;;;;;5035592;28;20493;-66
2022/05/12 02:32:05;;;;;;;34.27;31.03;;;11.30;99.90;;;;;;5030213;28;20804;-68
2022/05/12 02:34:34;;;;;;;35.23;32.77;;;11.30;99.90;;;;;;5029812;28;20475;-65
2022/05/12 02:37:01;;;;;;;36.30;33.40;;;11.20;99.90;;;;;;5030208;28;20464;-66
2022/05/12 02:39:29;;;;;;;37.57;34.67;;;11.20;99.90;;;;;;5031615;28;20472;-65
2022/05/12 02:41:56;;;;;;;33.17;30.60;;;11.20;99.90;;;;;;5031798;28;20461;-66
2022/05/12 02:44:23;;;;;;;34.13;31.63;;;11.20;99.90;;;;;;5031904;28;20468;-66
2022/05/12 02:46:50;;;;;;;34.23;31.60;;;11.20;99.90;;;;;;5033569;28;20963;-66
2022/05/12 02:49:17;;;;;;;34.43;31.17;;;11.20;99.90;;;;;;5028868;28;21011;-66
2022/05/12 02:51:47;;;;;;;35.53;32.30;;;11.20;99.90;;;;;;5029615;28;20464;-66
2022/05/12 02:54:15;;;;;;;34.37;31.47;;;11.10;99.90;;;;;;5028336;28;20908;-66
2022/05/12 02:56:42;;;;;;;37.77;34.50;;;11.10;99.90;;;;;;5029263;28;20464;-67
2022/05/12 02:59:10;;;;;;;33.27;30.73;;;11.00;99.90;;;;;;5032261;28;20835;-66
2022/05/12 03:01:38;;;;;;;35.40;32.37;;;10.90;99.90;;;;;;5033583;28;20534;-66
2022/05/12 03:04:06;;;;;;;36.87;33.80;;;10.80;99.90;;;;;;5031603;28;20472;-66
2022/05/12 03:06:33;;;;;;;37.47;33.90;;;10.70;99.90;;;;;;5027587;28;20495;-67
2022/05/12 03:09:01;;;;;;;37.00;33.70;;;10.70;99.90;;;;;;5031068;28;20511;-66
2022/05/12 03:11:29;;;;;;;37.90;34.83;;;10.60;99.90;;;;;;5029544;28;20472;-66
2022/05/12 03:13:56;;;;;;;37.80;34.20;;;10.40;99.90;;;;;;5028401;28;20787;-66
2022/05/12 03:16:24;;;;;;;37.57;34.60;;;10.40;99.90;;;;;;5034050;28;20933;-67
2022/05/12 03:18:51;;;;;;;38.67;35.37;;;10.40;99.90;;;;;;5028876;28;20468;-66
2022/05/12 03:21:18;;;;;;;38.97;35.80;;;10.40;99.90;;;;;;5031612;28;20468;-66
2022/05/12 03:23:45;;;;;;;38.80;35.50;;;10.40;99.90;;;;;;5028829;28;20646;-67
2022/05/12 03:26:15;;;;;;;38.77;35.17;;;10.20;99.90;;;;;;5026410;28;20551;-66
2022/05/12 03:28:41;;;;;;;38.83;35.53;;;10.30;99.90;;;;;;5030689;28;20569;-66
2022/05/12 03:31:09;;;;;;;40.07;36.20;;;10.30;99.90;;;;;;5030288;28;20476;-67
2022/05/12 03:33:37;;;;;;;38.83;35.90;;;10.30;99.90;;;;;;5031446;28;20460;-64
2022/05/12 03:36:05;;;;;;;39.37;36.00;;;10.20;99.90;;;;;;5031467;28;20476;-66
2022/05/12 03:38:32;;;;;;;38.60;35.90;;;10.00;99.90;;;;;;5036726;28;20464;-67
2022/05/12 03:40:59;;;;;;;39.97;36.33;;;9.90;99.90;;;;;;5030814;28;20537;-65
2022/05/12 03:46:13;;;;;;;39.10;35.80;;;10.00;99.90;;;;;;5030865;28;20455;-65
2022/05/12 03:48:41;;;;;;;38.70;35.67;;;10.00;99.90;;;;;;5035336;28;20589;-67
2022/05/12 03:51:09;;;;;;;38.07;35.17;;;9.90;99.90;;;;;;5031110;28;20472;-67
2022/05/12 03:53:37;;;;;;;39.20;35.90;;;9.80;99.90;;;;;;5026499;28;21002;-65
2022/05/12 03:56:06;;;;;;;36.30;33.80;;;9.80;99.90;;;;;;5026809;28;21000;-66
2022/05/12 03:58:35;;;;;;;38.63;35.40;;;9.80;99.90;;;;;;5026820;28;20448;-66
2022/05/12 04:01:02;;;;;;;36.97;34.17;;;9.70;99.90;;;;;;5030278;28;20484;-65
2022/05/12 04:03:29;;;;;;;40.30;36.37;;;9.70;99.90;;;;;;5004882;28;20473;-65
2022/05/12 04:05:59;;;;;;;39.93;36.00;;;9.60;99.90;;;;;;5002987;28;20495;-67
2022/05/12 04:08:25;;;;;;;38.33;34.93;;;9.70;99.90;;;;;;5003950;28;20495;-66
2022/05/12 04:10:52;;;;;;;39.80;36.23;;;9.70;99.90;;;;;;5003338;28;21338;-66
2022/05/12 04:13:19;;;;;;;38.77;35.07;;;9.70;99.90;;;;;;5003406;28;20990;-66
2022/05/12 04:15:48;;;;;;;40.07;36.43;;;9.60;99.90;;;;;;5002959;28;20467;-66
2022/05/12 04:18:15;;;;;;;41.00;37.47;;;9.70;99.90;;;;;;5003541;28;22435;-66
2022/05/12 04:20:42;;;;;;;37.73;34.77;;;9.60;99.90;;;;;;5003254;28;20950;-66
2022/05/12 04:23:09;;;;;;;37.23;34.10;;;9.70;99.90;;;;;;5004344;28;20467;-66
2022/05/12 04:25:36;;;;;;;37.87;34.40;;;9.80;99.90;;;;;;5003747;28;20465;-65
2022/05/12 04:28:04;;;;;;;35.50;32.70;;;9.80;99.90;;;;;;5003759;28;20491;-66
2022/05/12 04:30:32;;;;;;;37.67;34.27;;;9.90;99.90;;;;;;5003950;28;21102;-66
2022/05/12 04:35:11;;;;;;;39.07;35.27;;;10.00;99.90;;;;;;5003302;28;20462;-68
2022/05/12 04:35:47;;;;;;;37.30;33.80;;;10.00;99.90;;;;;;5003639;28;20463;-67
2022/05/12 04:38:14;;;;;;;36.70;33.90;;;10.10;99.90;;;;;;5002704;28;20457;-66
2022/05/12 04:40:40;;;;;;;38.33;34.43;;;10.10;99.90;;;;;;5003036;28;20625;-67
2022/05/12 04:43:07;;;;;;;37.17;33.93;;;10.20;99.90;;;;;;5002461;28;20473;-66
2022/05/12 04:45:34;;;;;;;36.50;32.57;;;10.40;99.90;;;;;;5003446;28;20472;-65
2022/05/12 04:48:03;;;;;;;36.30;33.03;;;10.60;99.90;;;;;;5003673;28;21097;-65
2022/05/12 04:50:34;;;;;;;36.60;33.13;;;10.60;99.90;;;;;;5003517;28;20515;-66
2022/05/12 04:53:02;;;;;;;37.40;33.60;;;10.70;99.90;;;;;;5005935;28;20459;-66
2022/05/12 04:55:30;;;;;;;41.33;34.23;;;10.70;99.90;;;;;;5007150;28;20465;-66
2022/05/12 04:57:59;;;;;;;37.00;33.33;;;10.80;99.90;;;;;;5006971;28;20463;-66
2022/05/12 05:00:31;;;;;;;44.40;39.53;;;10.90;99.90;;;;;;5006676;28;20740;-67
2022/05/12 05:02:58;;;;;;;50.43;39.60;;;11.00;99.90;;;;;;5006209;28;20465;-66
2022/05/12 05:05:27;;;;;;;39.33;35.80;;;11.10;99.90;;;;;;5006566;28;20483;-68
2022/05/12 05:07:54;;;;;;;43.87;37.70;;;11.10;99.90;;;;;;5007417;28;20461;-65
2022/05/12 05:10:21;;;;;;;45.23;40.93;;;11.10;99.90;;;;;;5006570;28;20504;-66
2022/05/12 05:12:48;;;;;;;49.30;41.30;;;11.20;99.90;;;;;;5006887;28;20965;-67
2022/05/12 05:15:16;;;;;;;43.30;37.90;;;11.30;99.90;;;;;;5006350;28;21038;-66
2022/05/12 05:17:43;;;;;;;39.80;35.50;;;11.40;99.90;;;;;;5006358;28;20475;-66
2022/05/12 05:20:13;;;;;;;38.70;35.10;;;11.50;99.90;;;;;;5006367;28;20803;-65
2022/05/12 05:22:41;;;;;;;39.97;34.80;;;11.60;99.90;;;;;;5006074;28;20503;-67
2022/05/12 05:25:09;;;;;;;36.77;33.37;;;11.70;99.90;;;;;;5006946;28;20797;-66
2022/05/12 05:27:37;;;;;;;37.87;34.27;;;11.80;99.90;;;;;;5009279;28;20468;-65
2022/05/12 05:30:06;;;;;;;38.20;34.67;;;11.80;99.90;;;;;;5034518;28;20987;-67
2022/05/12 05:32:32;;;;;;;39.57;35.57;;;11.90;99.90;;;;;;5030415;28;20497;-65
2022/05/12 05:34:59;;;;;;;46.80;39.50;;;12.10;99.90;;;;;;5007948;28;20460;-66
2022/05/12 05:37:26;;;;;;;42.47;37.83;;;12.10;99.90;;;;;;5005602;28;20464;-65
2022/05/12 05:39:54;;;;;;;47.40;38.20;;;12.20;99.90;;;;;;5006123;28;20967;-67
2022/05/12 05:42:21;;;;;;;43.10;36.63;;;12.30;99.90;;;;;;5005971;28;20464;-69
2022/05/12 05:44:49;;;;;;;44.83;37.47;;;12.50;99.90;;;;;;5007112;28;20465;-67
2022/05/12 05:47:17;;;;;;;45.17;34.67;;;12.60;99.90;;;;;;5005738;28;20467;-66
2022/05/12 05:49:44;;;;;;;45.20;35.00;;;12.70;99.90;;;;;;5005674;28;20492;-66
2022/05/12 05:54:58;;;;;;;46.83;34.77;;;12.90;99.90;;;;;;5006831;28;20985;-66
2022/05/12 05:57:27;;;;;;;45.03;34.30;;;13.00;99.90;;;;;;5024282;28;20463;-66
2022/05/12 05:59:57;;;;;;;51.77;33.03;;;13.00;99.90;;;;;;5037756;28;20488;-67
2022/05/12 06:02:24;;;;;;;50.50;34.03;;;13.10;99.90;;;;;;5010176;28;20484;-67
2022/05/12 06:04:51;;;;;;;43.67;30.67;;;13.20;99.90;;;;;;5002668;28;21108;-67
2022/05/12 06:07:19;;;;;;;41.83;32.63;;;13.30;99.90;;;;;;5003694;28;20484;-66
2022/05/12 06:09:46;;;;;;;53.80;31.40;;;13.30;99.90;;;;;;5011199;28;20500;-65
2022/05/12 06:12:14;;;;;;;43.10;29.37;;;13.40;99.90;;;;;;5033270;28;20457;-66
2022/05/12 06:14:42;;;;;;;44.80;30.10;;;13.40;99.90;;;;;;5030895;28;20886;-66
2022/05/12 06:17:09;;;;;;;48.50;29.43;;;13.40;99.90;;;;;;5032656;28;20476;-65
2022/05/12 06:19:36;;;;;;;44.23;29.93;;;13.50;99.90;;;;;;5003439;28;20468;-66
2022/05/12 06:22:04;;;;;;;42.13;29.10;;;13.60;99.90;;;;;;5003185;28;20460;-66
2022/05/12 06:24:31;;;;;;;43.97;27.47;;;13.70;99.90;;;;;;5003866;28;20870;-67
2022/05/12 06:26:57;;;;;;;41.80;28.57;;;13.70;99.90;;;;;;5003087;28;21083;-66
2022/05/12 06:29:26;;;;;;;47.20;26.90;;;13.80;99.90;;;;;;5003375;28;20488;-67
2022/05/12 06:31:53;;;;;;;34.87;26.30;;;13.90;99.90;;;;;;5002802;28;20512;-66
2022/05/12 06:34:20;;;;;;;38.43;26.27;;;13.90;99.90;;;;;;5003794;28;20675;-68
2022/05/12 06:36:46;;;;;;;37.80;27.23;;;14.00;99.90;;;;;;5003155;28;20475;-67
2022/05/12 06:39:13;;;;;;;36.00;26.97;;;14.00;99.90;;;;;;5002903;28;20457;-67
2022/05/12 06:41:40;;;;;;;35.83;26.70;;;14.00;99.90;;;;;;5001965;28;20807;-68
2022/05/12 06:44:07;;;;;;;40.00;26.43;;;14.10;99.90;;;;;;5002060;28;20476;-66
2022/05/12 06:46:36;;;;;;;33.20;24.57;;;14.20;99.90;;;;;;5002572;28;21145;-67
2022/05/12 06:49:03;;;;;;;50.60;27.50;;;14.30;99.90;;;;;;5001934;28;20864;-68
2022/05/12 06:51:30;;;;;;;36.93;26.63;;;14.40;99.90;;;;;;5002029;28;20473;-70
2022/05/12 06:53:58;;;;;;;30.10;24.70;;;14.40;99.90;;;;;;5002925;28;20461;-69
2022/05/12 06:56:24;;;;;;;30.77;23.07;;;14.50;99.90;;;;;;5002181;28;20594;-69
2022/05/12 06:58:52;;;;;;;27.63;24.70;;;14.60;99.90;;;;;;5003823;28;20476;-68
2022/05/12 07:01:19;;;;;;;28.00;23.30;;;14.70;99.90;;;;;;5004061;28;20486;-67
2022/05/12 07:03:48;;;;;;;32.00;25.97;;;14.90;99.90;;;;;;5003787;28;20459;-68
2022/05/12 07:06:16;;;;;;;36.83;24.63;;;15.00;99.90;;;;;;5001749;28;20567;-69
2022/05/12 07:08:43;;;;;;;30.73;25.83;;;15.10;99.90;;;;;;5003217;28;20464;-67
2022/05/12 07:11:12;;;;;;;29.50;25.30;;;15.20;99.90;;;;;;5003897;28;20932;-67
2022/05/12 07:13:39;;;;;;;32.40;26.00;;;15.20;99.90;;;;;;5002824;28;21121;-66
2022/05/12 07:16:08;;;;;;;36.60;25.27;;;15.40;99.90;;;;;;5002428;28;20466;-69
2022/05/12 07:18:36;;;;;;;31.23;24.70;;;15.40;99.90;;;;;;5002462;28;20555;-68
2022/05/12 07:26:40;;;;;;;27.97;25.20;;;15.50;99.90;;;;;;5001501;28;20564;-66
2022/05/12 07:29:10;;;;;;;26.70;24.10;;;15.60;99.90;;;;;;5002166;28;20487;-67
2022/05/12 07:31:37;;;;;;;27.00;24.20;;;15.70;99.90;;;;;;5003042;28;20597;-66
2022/05/12 07:34:04;;;;;;;27.03;24.37;;;15.80;99.90;;;;;;5001684;28;20499;-66
2022/05/12 07:36:34;;;;;;;29.33;26.67;;;15.90;99.90;;;;;;5001438;28;20471;-66
2022/05/12 07:39:01;;;;;;;26.87;24.47;;;15.90;99.90;;;;;;5001740;28;20469;-66
2022/05/12 07:41:29;;;;;;;26.83;24.60;;;15.90;99.90;;;;;;5002288;28;20464;-67
2022/05/12 07:43:56;;;;;;;28.40;25.77;;;16.00;99.90;;;;;;4999826;28;20988;-66
2022/05/12 07:46:27;;;;;;;26.97;24.33;;;15.90;99.90;;;;;;5002836;28;20859;-66
2022/05/12 07:48:54;;;;;;;26.70;24.20;;;15.80;99.90;;;;;;5002039;28;21005;-66
2022/05/12 07:51:22;;;;;;;50.20;23.47;;;15.90;99.90;;;;;;5001081;28;20923;-67
2022/05/12 07:53:51;;;;;;;26.30;24.07;;;16.40;99.90;;;;;;5002981;28;20758;-67
2022/05/12 07:56:20;;;;;;;26.57;24.27;;;16.30;99.90;;;;;;5002014;28;21035;-67
2022/05/12 07:58:48;;;;;;;27.77;25.23;;;16.30;99.90;;;;;;5004655;28;22496;-67
2022/05/12 08:01:17;;;;;;;26.20;24.20;;;16.40;99.90;;;;;;5028909;28;21052;-66
2022/05/12 08:03:45;;;;;;;27.33;24.03;;;16.70;99.90;;;;;;5026212;28;20907;-67
2022/05/12 08:06:13;;;;;;;25.40;23.00;;;16.90;99.90;;;;;;5005052;28;20863;-66
2022/05/12 08:08:41;;;;;;;23.80;21.40;;;17.20;99.90;;;;;;5001520;28;20476;-66
2022/05/12 08:11:10;;;;;;;24.33;22.20;;;17.10;99.90;;;;;;5001712;28;20591;-67
2022/05/12 08:13:37;;;;;;;25.50;23.10;;;17.20;99.90;;;;;;5001325;28;20464;-67
2022/05/12 08:16:05;;;;;;;23.97;22.10;;;17.00;99.90;;;;;;5001154;28;20460;-68
2022/05/12 08:18:34;;;;;;;23.90;21.97;;;17.10;99.90;;;;;;5003047;28;20460;-68
2022/05/12 08:21:01;;;;;;;23.13;21.43;;;17.30;99.90;;;;;;5002073;28;20488;-67
2022/05/12 08:23:28;;;;;;;23.07;21.03;;;17.40;99.90;;;;;;5002014;28;20998;-68
2022/05/12 08:25:55;;;;;;;21.93;20.00;;;17.90;99.90;;;;;;5001397;28;20651;-67
2022/05/12 08:28:25;;;;;;;21.50;20.10;;;18.20;99.90;;;;;;5001977;28;21070;-67
2022/05/12 08:30:53;;;;;;;22.43;20.80;;;18.70;99.90;;;;;;5002482;28;20497;-67
2022/05/12 08:33:21;;;;;;;22.10;20.33;;;19.10;99.90;;;;;;5002501;28;20459;-67
2022/05/12 08:35:48;;;;;;;21.50;20.00;;;19.50;99.90;;;;;;5000875;28;20456;-68
2022/05/12 08:38:16;;;;;;;20.40;18.87;;;20.10;99.90;;;;;;4999988;28;21305;-68
2022/05/12 08:40:52;;;;;;;24.03;19.27;;;20.50;99.90;;;;;;5000979;28;20499;-68
2022/05/12 08:43:22;;;;;;;20.20;18.90;;;20.50;99.90;;;;;;5001055;28;20534;-67
2022/05/12 08:45:52;;;;;;;21.00;19.23;;;20.60;99.90;;;;;;5000560;28;20832;-68
2022/05/12 08:48:20;;;;;;;20.17;18.77;;;20.40;99.90;;;;;;5000944;28;20468;-67
2022/05/12 08:50:51;;;;;;;20.47;18.87;;;20.30;99.90;;;;;;5001573;28;20987;-68
2022/05/12 08:53:22;;;;;;;20.87;19.40;;;20.30;99.90;;;;;;5001556;28;20503;-68
2022/05/12 08:55:52;;;;;;;20.30;18.90;;;20.50;99.90;;;;;;5001293;28;20464;-67
2022/05/12 08:58:25;;;;;;;20.47;18.80;;;21.00;99.90;;;;;;4999993;28;20474;-67
2022/05/12 09:01:05;;;;;;;19.87;18.57;;;20.80;99.90;;;;;;4999623;28;20481;-67
2022/05/12 09:03:47;;;;;;;20.30;19.00;;;21.40;99.90;;;;;;5001105;28;20523;-66
2022/05/12 09:06:20;;;;;;;19.03;17.73;;;20.80;99.90;;;;;;5000763;28;20487;-67
2022/05/12 09:08:53;;;;;;;18.27;17.17;;;20.30;99.90;;;;;;5000967;28;20465;-67
2022/05/12 09:11:27;;;;;;;18.00;17.00;;;20.50;99.90;;;;;;5018297;28;20524;-67
2022/05/12 09:13:55;;;;;;;18.60;17.50;;;20.70;99.90;;;;;;5002591;28;20475;-68
2022/05/12 09:16:26;;;;;;;18.50;17.53;;;21.30;99.90;;;;;;5000799;28;20500;-67
2022/05/12 09:18:54;;;;;;;19.13;18.00;;;21.20;99.90;;;;;;5001209;28;20550;-67
2022/05/12 09:21:23;;;;;;;21.33;19.50;;;21.30;99.90;;;;;;5000777;28;21225;-67
2022/05/12 09:23:51;;;;;;;19.67;18.50;;;21.10;99.90;;;;;;5001230;28;20573;-69
2022/05/12 09:26:34;;;;;;;19.90;18.10;;;20.70;99.90;;;;;;4998409;28;20472;-67
2022/05/12 09:29:10;;;;;;;19.00;17.80;;;20.20;99.90;;;;;;4999894;28;20472;-66
2022/05/12 09:31:39;;;;;;;18.67;17.03;;;19.70;99.90;;;;;;4999436;28;20530;-68
2022/05/12 09:34:16;;;;;;;17.60;16.50;;;20.40;99.90;;;;;;5001120;28;20486;-67
2022/05/12 09:36:43;;;;;;;18.50;17.20;;;20.90;99.90;;;;;;4999785;28;20469;-66
2022/05/12 09:39:12;;;;;;;19.17;17.97;;;20.60;99.90;;;;;;5002862;28;20955;-67
2022/05/12 09:41:40;;;;;;;18.33;17.03;;;20.40;99.90;;;;;;5004626;28;21125;-69
2022/05/12 09:44:20;;;;;;;18.23;17.10;;;20.30;99.90;;;;;;5004644;28;20955;-67
2022/05/12 09:46:58;;;;;;;18.97;17.83;;;19.90;99.90;;;;;;5003663;28;20651;-67
2022/05/12 09:49:32;;;;;;;18.60;17.43;;;19.60;99.90;;;;;;5004102;28;20815;-68
2022/05/12 09:52:19;;;;;;;18.87;17.80;;;20.30;99.90;;;;;;5004106;28;20496;-68
2022/05/12 09:55:11;;;;;;;18.10;16.90;;;21.70;99.90;;;;;;5004017;28;20912;-67
2022/05/12 09:57:46;;;;;;;17.73;16.53;;;21.60;99.90;;;;;;5003315;28;22493;-68
2022/05/12 10:00:26;;;;;;;17.73;16.57;;;21.10;99.90;;;;;;5004385;28;20488;-68
2022/05/12 10:08:33;;;;;;;19.73;18.63;;;20.40;99.90;;;;;;5001723;28;20484;-69
2022/05/12 10:11:03;;;;;;;18.53;17.43;;;20.10;99.90;;;;;;5001722;28;21912;-67
2022/05/12 10:13:36;;;;;;;18.23;17.17;;;19.70;99.90;;;;;;5002179;28;20456;-67
2022/05/12 10:16:04;;;;;;;18.57;17.50;;;19.80;99.90;;;;;;5001148;28;21247;-67
2022/05/12 10:18:38;;;;;;;18.90;17.40;;;19.90;99.90;;;;;;5002386;28;20456;-67
2022/05/12 10:21:14;;;;;;;18.30;16.93;;;19.70;99.90;;;;;;5001900;28;20468;-66
2022/05/12 10:23:50;;;;;;;20.43;18.80;;;19.60;99.90;;;;;;5003327;28;20551;-67
2022/05/12 10:26:23;;;;;;;18.33;17.30;;;20.10;99.90;;;;;;5003735;28;20839;-67
2022/05/12 10:28:53;;;;;;;17.60;16.30;;;20.90;99.90;;;;;;5003080;28;20483;-68
2022/05/12 10:31:29;;;;;;;18.20;16.90;;;21.70;99.90;;;;;;4999881;28;21020;-67
2022/05/12 10:34:07;;;;;;;18.57;17.47;;;22.40;98.90;;;;;;4999844;28;21153;-66
2022/05/12 10:36:45;;;;;;;19.17;17.37;;;22.60;99.90;;;;;;4999997;28;20468;-66
2022/05/12 10:39:21;;;;;;;17.37;16.33;;;23.00;97.20;;;;;;5001647;28;20982;-66
2022/05/12 10:42:11;;;;;;;17.70;16.70;;;23.20;93.90;;;;;;5002600;28;20461;-67
2022/05/12 10:45:00;;;;;;;17.97;16.77;;;23.40;96.30;;;;;;5001271;28;20460;-67
2022/05/12 10:47:39;;;;;;;17.27;16.03;;;23.50;94.80;;;;;;5001773;28;20461;-67
2022/05/12 10:50:16;;;;;;;18.63;17.20;;;23.20;94.20;;;;;;5002437;28;20738;-68
2022/05/12 10:52:53;;;;;;;18.23;17.03;;;23.50;95.80;;;;;;5002002;28;21147;-68
2022/05/12 10:55:28;;;;;;;17.83;16.53;;;23.00;96.30;;;;;;5001568;28;20469;-67
2022/05/12 10:58:07;;;;;;;17.60;16.20;;;21.70;97.90;;;;;;5003203;28;20461;-66
2022/05/12 11:00:50;;;;;;;17.40;16.33;;;22.10;98.60;;;;;;5001567;28;20495;-67
2022/05/12 11:03:21;;;;;;;17.97;16.70;;;23.10;96.50;;;;;;5001972;28;20457;-67
2022/05/12 11:05:54;;;;;;;16.80;15.80;;;23.30;96.40;;;;;;5001272;28;21007;-67
2022/05/12 11:08:24;;;;;;;18.47;17.07;;;22.50;95.60;;;;;;5001849;28;20832;-68
2022/05/12 11:10:54;;;;;;;18.50;17.30;;;23.00;94.80;;;;;;5014168;28;20558;-68
2022/05/12 11:13:32;;;;;;;18.10;16.90;;;22.50;95.00;;;;;;5001484;28;20467;-67
2022/05/12 11:16:01;;;;;;;18.30;17.20;;;22.20;95.10;;;;;;5001361;28;20977;-67
2022/05/12 11:18:36;;;;;;;18.63;17.43;;;22.80;93.70;;;;;;5000684;28;20465;-67
2022/05/12 11:21:13;;;;;;;18.03;16.93;;;23.20;92.60;;;;;;5000414;28;20472;-68
2022/05/12 11:23:56;;;;;;;19.40;18.10;;;23.70;91.60;;;;;;4999682;28;20472;-66
2022/05/12 11:26:39;;;;;;;17.97;16.80;;;23.80;94.20;;;;;;5000411;28;20476;-69
2022/05/12 11:32:05;;;;;;;18.00;16.90;;;23.70;92.80;;;;;;5001123;28;20595;-68
2022/05/12 11:34:33;;;;;;;17.13;16.13;;;23.40;91.80;;;;;;5000817;28;20548;-68
2022/05/12 11:37:32;;;;;;;17.13;16.17;;;24.10;91.00;;;;;;5000579;28;20468;-68
2022/05/12 11:40:01;;;;;;;16.90;15.90;;;25.10;84.40;;;;;;5000599;28;20964;-69
2022/05/12 11:42:28;;;;;;;16.50;15.60;;;25.30;84.70;;;;;;5002370;28;20472;-68
2022/05/12 11:44:57;;;;;;;16.70;15.50;;;25.70;86.00;;;;;;5000908;28;20471;-68
2022/05/12 11:47:53;;;;;;;16.77;15.77;;;26.30;81.90;;;;;;4999959;28;20475;-69
2022/05/12 11:50:35;;;;;;;16.37;15.37;;;26.10;79.70;;;;;;5000336;28;21042;-69
2022/05/12 11:53:13;;;;;;;16.17;15.20;;;25.50;76.20;;;;;;4999106;28;20888;-69
2022/05/12 11:55:56;;;;;;;15.30;14.60;;;24.50;78.50;;;;;;5001042;28;20459;-69
2022/05/12 11:58:32;;;;;;;15.60;14.70;;;24.40;82.40;;;;;;4999692;28;20979;-68
2022/05/12 12:01:01;;;;;;;17.20;16.10;;;24.60;75.60;;;;;;5000446;28;20546;-68
2022/05/12 12:03:52;;;;;;;15.90;15.03;;;25.10;77.20;;;;;;5000611;28;20461;-69
2022/05/12 12:06:42;;;;;;;16.87;15.57;;;25.50;80.00;;;;;;5000043;28;20526;-68
2022/05/12 12:09:49;;;;;;;15.73;14.80;;;25.50;78.00;;;;;;5000677;28;20461;-69
2022/05/12 12:12:54;;;;;;;16.27;15.27;;;25.90;72.80;;;;;;4986972;28;20479;-69
2022/05/12 12:15:43;;;;;;;16.50;15.33;;;26.20;72.20;;;;;;5000599;28;21557;-69
2022/05/12 12:18:57;;;;;;;15.93;15.03;;;26.50;73.90;;;;;;4998319;28;20468;-69
2022/05/12 12:21:44;;;;;;;16.77;15.73;;;26.50;66.90;;;;;;5000317;28;20473;-68
2022/05/12 12:24:43;;;;;;;17.50;16.40;;;26.70;67.30;;;;;;5000293;28;20861;-68
2022/05/12 12:27:26;;;;;;;17.03;15.80;;;26.80;65.20;;;;;;4999855;28;20467;-68
2022/05/12 12:29:53;;;;;;;16.23;15.13;;;26.60;64.60;;;;;;5000240;28;20486;-68
2022/05/12 12:32:28;;;;;;;15.30;14.20;;;26.50;60.80;;;;;;5000768;28;20485;-70
2022/05/12 12:34:57;;;;;;;15.40;14.60;;;26.50;64.40;;;;;;4999382;28;20465;-67
2022/05/12 12:37:44;;;;;;;15.90;14.63;;;26.30;62.40;;;;;;4998094;28;20527;-68
2022/05/12 12:40:44;;;;;;;14.93;14.20;;;26.00;64.50;;;;;;4999674;28;20459;-67
2022/05/12 12:43:25;;;;;;;16.77;15.73;;;26.70;62.50;;;;;;4940220;28;21315;-68
2022/05/12 12:45:54;;;;;;;16.07;15.07;;;27.30;64.20;;;;;;4992105;28;20459;-67
2022/05/12 12:48:23;;;;;;;16.40;15.30;;;27.10;62.10;;;;;;4998701;28;20983;-67
2022/05/12 12:50:52;;;;;;;16.77;15.83;;;26.10;63.60;;;;;;4999936;28;20479;-68
2022/05/12 12:56:31;;;;;;;16.00;14.97;;;25.20;64.50;;;;;;4980483;28;20941;-67
2022/05/12 12:59:00;;;;;;;15.67;14.63;;;24.80;64.90;;;;;;4999132;28;21269;-67
2022/05/12 13:01:37;;;;;;;15.87;14.97;;;24.90;65.00;;;;;;4999161;28;21067;-67
2022/05/12 13:04:09;;;;;;;16.43;15.23;;;25.40;63.20;;;;;;4999162;28;20480;-67
2022/05/12 13:06:37;;;;;;;15.70;14.73;;;25.60;62.40;;;;;;4998108;28;20744;-68
2022/05/12 13:09:07;;;;;;;15.60;14.60;;;25.60;63.50;;;;;;4999468;28;20487;-68